sensor_id;sensor_type;location;lat;lon;timestamp;P1;durP1;ratioP1;P2;durP2;ratioP2
26953;SDS011;14508;50.924;11.600;2022-12-18T00:01:52;32.67;;;12.23;;
26953;SDS011;14508;50.924;11.600;2022-12-18T00:04:21;39.25;;;13.05;;
26953;SDS011;14508;50.924;11.600;2022-12-18T00:06:50;36.38;;;14.43;;
26953;SDS011;14508;50.924;11.600;2022-12-18T00:09:19;42.92;;;13.45;;
26953;SDS011;14508;50.924;11.600;2022-12-18T00:11:50;31.98;;;13.80;;
26953;SDS011;14508;50.924;11.600;2022-12-18T00:14:17;34.17;;;13.60;;
26953;SDS011;14508;50.924;11.600;2022-12-18T00:16:47;41.58;;;16.33;;
26953;SDS011;14508;50.924;11.600;2022-12-18T00:19:15;39.40;;;15.30;;
26953;SDS011;14508;50.924;11.600;2022-12-18T00:21:43;34.55;;;13.95;;
26953;SDS011;14508;50.924;11.600;2022-12-18T00:24:11;41.88;;;17.58;;
26953;SDS011;14508;50.924;11.600;2022-12-18T00:26:39;43.25;;;15.65;;
26953;SDS011;14508;50.924;11.600;2022-12-18T00:29:09;42.13;;;15.93;;
26953;SDS011;14508;50.924;11.600;2022-12-18T00:31:40;42.50;;;16.20;;
26953;SDS011;14508;50.924;11.600;2022-12-18T00:34:11;37.78;;;15.15;;
26953;SDS011;14508;50.924;11.600;2022-12-18T00:36:40;39.35;;;16.15;;
26953;SDS011;14508;50.924;11.600;2022-12-18T00:39:09;37.67;;;14.95;;
26953;SDS011;14508;50.924;11.600;2022-12-18T00:41:38;33.55;;;14.60;;
26953;SDS011;14508;50.924;11.600;2022-12-18T00:44:24;41.72;;;15.30;;
26953;SDS011;14508;50.924;11.600;2022-12-18T00:46:52;38.20;;;14.30;;
26953;SDS011;14508;50.924;11.600;2022-12-18T00:49:22;38.03;;;15.80;;
26953;SDS011;14508;50.924;11.600;2022-12-18T00:51:50;51.80;;;15.75;;
26953;SDS011;14508;50.924;11.600;2022-12-18T00:54:18;42.70;;;16.20;;
26953;SDS011;14508;50.924;11.600;2022-12-18T00:56:46;39.75;;;15.57;;
26953;SDS011;14508;50.924;11.600;2022-12-18T00:59:16;33.33;;;14.35;;
26953;SDS011;14508;50.924;11.600;2022-12-18T01:01:45;45.80;;;14.50;;
26953;SDS011;14508;50.924;11.600;2022-12-18T01:04:14;37.28;;;14.85;;
26953;SDS011;14508;50.924;11.600;2022-12-18T01:06:45;36.92;;;13.70;;
26953;SDS011;14508;50.924;11.600;2022-12-18T01:09:13;42.05;;;13.95;;
26953;SDS011;14508;50.924;11.600;2022-12-18T01:11:42;36.55;;;12.65;;
26953;SDS011;14508;50.924;11.600;2022-12-18T01:14:10;37.13;;;14.27;;
26953;SDS011;14508;50.924;11.600;2022-12-18T01:16:38;33.42;;;12.43;;
26953;SDS011;14508;50.924;11.600;2022-12-18T01:19:06;37.58;;;12.07;;
26953;SDS011;14508;50.924;11.600;2022-12-18T01:21:34;34.03;;;13.23;;
26953;SDS011;14508;50.924;11.600;2022-12-18T01:24:04;35.75;;;13.15;;
26953;SDS011;14508;50.924;11.600;2022-12-18T01:26:33;33.75;;;12.73;;
26953;SDS011;14508;50.924;11.600;2022-12-18T01:29:01;36.20;;;14.48;;
26953;SDS011;14508;50.924;11.600;2022-12-18T01:31:30;39.17;;;14.43;;
26953;SDS011;14508;50.924;11.600;2022-12-18T01:34:01;35.10;;;13.38;;
26953;SDS011;14508;50.924;11.600;2022-12-18T01:36:31;32.28;;;12.95;;
26953;SDS011;14508;50.924;11.600;2022-12-18T01:39:00;27.08;;;13.10;;
26953;SDS011;14508;50.924;11.600;2022-12-18T01:41:32;29.23;;;11.95;;
26953;SDS011;14508;50.924;11.600;2022-12-18T01:47:33;28.15;;;11.70;;
26953;SDS011;14508;50.924;11.600;2022-12-18T01:50:07;39.65;;;12.70;;
26953;SDS011;14508;50.924;11.600;2022-12-18T01:52:37;35.95;;;13.77;;
26953;SDS011;14508;50.924;11.600;2022-12-18T01:55:08;27.17;;;11.88;;
26953;SDS011;14508;50.924;11.600;2022-12-18T01:57:39;35.00;;;12.10;;
26953;SDS011;14508;50.924;11.600;2022-12-18T02:00:08;33.13;;;11.82;;
26953;SDS011;14508;50.924;11.600;2022-12-18T02:02:38;35.13;;;12.43;;
26953;SDS011;14508;50.924;11.600;2022-12-18T02:05:07;39.40;;;12.93;;
26953;SDS011;14508;50.924;11.600;2022-12-18T02:07:39;33.65;;;13.15;;
26953;SDS011;14508;50.924;11.600;2022-12-18T02:10:13;37.65;;;13.38;;
26953;SDS011;14508;50.924;11.600;2022-12-18T02:12:51;33.78;;;13.30;;
26953;SDS011;14508;50.924;11.600;2022-12-18T02:15:24;47.38;;;13.25;;
26953;SDS011;14508;50.924;11.600;2022-12-18T02:17:59;33.70;;;13.02;;
26953;SDS011;14508;50.924;11.600;2022-12-18T02:20:36;25.83;;;11.70;;
26953;SDS011;14508;50.924;11.600;2022-12-18T02:23:11;39.90;;;13.40;;
26953;SDS011;14508;50.924;11.600;2022-12-18T02:26:00;27.77;;;13.07;;
26953;SDS011;14508;50.924;11.600;2022-12-18T02:28:34;31.05;;;13.27;;
26953;SDS011;14508;50.924;11.600;2022-12-18T02:31:06;31.75;;;13.02;;
26953;SDS011;14508;50.924;11.600;2022-12-18T02:33:38;36.28;;;12.68;;
26953;SDS011;14508;50.924;11.600;2022-12-18T02:36:08;39.83;;;12.73;;
26953;SDS011;14508;50.924;11.600;2022-12-18T02:38:38;35.22;;;11.77;;
26953;SDS011;14508;50.924;11.600;2022-12-18T02:41:12;32.10;;;12.07;;
26953;SDS011;14508;50.924;11.600;2022-12-18T02:43:46;32.33;;;11.80;;
26953;SDS011;14508;50.924;11.600;2022-12-18T02:46:25;32.47;;;12.57;;
26953;SDS011;14508;50.924;11.600;2022-12-18T02:49:05;32.10;;;12.30;;
26953;SDS011;14508;50.924;11.600;2022-12-18T02:51:41;34.80;;;11.00;;
26953;SDS011;14508;50.924;11.600;2022-12-18T02:54:18;36.25;;;12.23;;
26953;SDS011;14508;50.924;11.600;2022-12-18T02:56:55;34.08;;;12.82;;
26953;SDS011;14508;50.924;11.600;2022-12-18T02:59:26;35.38;;;12.30;;
26953;SDS011;14508;50.924;11.600;2022-12-18T03:02:06;26.40;;;11.65;;
26953;SDS011;14508;50.924;11.600;2022-12-18T03:04:46;43.92;;;13.20;;
26953;SDS011;14508;50.924;11.600;2022-12-18T03:07:20;27.48;;;11.52;;
26953;SDS011;14508;50.924;11.600;2022-12-18T03:09:55;34.88;;;10.73;;
26953;SDS011;14508;50.924;11.600;2022-12-18T03:12:28;29.48;;;13.45;;
26953;SDS011;14508;50.924;11.600;2022-12-18T03:15:00;33.17;;;11.73;;
26953;SDS011;14508;50.924;11.600;2022-12-18T03:17:32;27.85;;;10.73;;
26953;SDS011;14508;50.924;11.600;2022-12-18T03:20:02;24.90;;;10.40;;
26953;SDS011;14508;50.924;11.600;2022-12-18T03:22:34;27.83;;;12.65;;
26953;SDS011;14508;50.924;11.600;2022-12-18T03:25:05;33.45;;;12.23;;
26953;SDS011;14508;50.924;11.600;2022-12-18T03:27:40;36.10;;;12.27;;
26953;SDS011;14508;50.924;11.600;2022-12-18T03:30:15;32.67;;;12.13;;
26953;SDS011;14508;50.924;11.600;2022-12-18T03:32:44;28.25;;;11.35;;
26953;SDS011;14508;50.924;11.600;2022-12-18T03:35:22;19.80;;;9.60;;
26953;SDS011;14508;50.924;11.600;2022-12-18T03:37:58;28.17;;;11.82;;
26953;SDS011;14508;50.924;11.600;2022-12-18T03:40:26;29.38;;;10.93;;
26953;SDS011;14508;50.924;11.600;2022-12-18T03:43:02;28.80;;;11.67;;
26953;SDS011;14508;50.924;11.600;2022-12-18T03:45:36;30.77;;;11.15;;
26953;SDS011;14508;50.924;11.600;2022-12-18T03:48:12;35.03;;;11.05;;
26953;SDS011;14508;50.924;11.600;2022-12-18T03:50:48;33.30;;;12.55;;
26953;SDS011;14508;50.924;11.600;2022-12-18T03:53:23;25.38;;;9.35;;
26953;SDS011;14508;50.924;11.600;2022-12-18T03:55:58;22.90;;;10.40;;
26953;SDS011;14508;50.924;11.600;2022-12-18T03:58:34;32.05;;;11.23;;
26953;SDS011;14508;50.924;11.600;2022-12-18T04:01:15;33.70;;;13.15;;
26953;SDS011;14508;50.924;11.600;2022-12-18T04:07:59;29.05;;;10.82;;
26953;SDS011;14508;50.924;11.600;2022-12-18T04:10:29;29.55;;;10.77;;
26953;SDS011;14508;50.924;11.600;2022-12-18T04:12:59;33.78;;;11.82;;
26953;SDS011;14508;50.924;11.600;2022-12-18T04:15:29;25.42;;;10.27;;
26953;SDS011;14508;50.924;11.600;2022-12-18T04:18:01;26.92;;;12.35;;
26953;SDS011;14508;50.924;11.600;2022-12-18T04:20:38;26.40;;;9.05;;
26953;SDS011;14508;50.924;11.600;2022-12-18T04:23:07;32.83;;;11.35;;
26953;SDS011;14508;50.924;11.600;2022-12-18T04:25:36;30.65;;;10.15;;
26953;SDS011;14508;50.924;11.600;2022-12-18T04:28:09;35.75;;;9.93;;
26953;SDS011;14508;50.924;11.600;2022-12-18T04:30:39;23.73;;;9.68;;
26953;SDS011;14508;50.924;11.600;2022-12-18T04:33:08;33.08;;;10.77;;
26953;SDS011;14508;50.924;11.600;2022-12-18T04:35:37;20.65;;;9.43;;
26953;SDS011;14508;50.924;11.600;2022-12-18T04:38:06;26.92;;;10.43;;
26953;SDS011;14508;50.924;11.600;2022-12-18T04:40:35;29.23;;;11.25;;
26953;SDS011;14508;50.924;11.600;2022-12-18T04:43:10;28.67;;;10.80;;
26953;SDS011;14508;50.924;11.600;2022-12-18T04:45:40;27.20;;;9.35;;
26953;SDS011;14508;50.924;11.600;2022-12-18T04:48:08;27.48;;;10.73;;
26953;SDS011;14508;50.924;11.600;2022-12-18T04:50:36;28.08;;;9.45;;
26953;SDS011;14508;50.924;11.600;2022-12-18T04:53:06;29.65;;;9.55;;
26953;SDS011;14508;50.924;11.600;2022-12-18T04:55:35;24.42;;;10.25;;
26953;SDS011;14508;50.924;11.600;2022-12-18T04:58:04;32.40;;;9.95;;
26953;SDS011;14508;50.924;11.600;2022-12-18T05:00:32;19.20;;;9.52;;
26953;SDS011;14508;50.924;11.600;2022-12-18T05:03:01;24.10;;;10.20;;
26953;SDS011;14508;50.924;11.600;2022-12-18T05:05:29;19.58;;;8.48;;
26953;SDS011;14508;50.924;11.600;2022-12-18T05:07:58;24.30;;;10.50;;
26953;SDS011;14508;50.924;11.600;2022-12-18T05:10:26;28.02;;;10.63;;
26953;SDS011;14508;50.924;11.600;2022-12-18T05:13:02;31.05;;;10.98;;
26953;SDS011;14508;50.924;11.600;2022-12-18T05:15:31;22.00;;;10.10;;
26953;SDS011;14508;50.924;11.600;2022-12-18T05:18:02;23.05;;;9.20;;
26953;SDS011;14508;50.924;11.600;2022-12-18T05:20:31;40.17;;;10.68;;
26953;SDS011;14508;50.924;11.600;2022-12-18T05:22:59;16.73;;;8.75;;
26953;SDS011;14508;50.924;11.600;2022-12-18T05:25:27;26.45;;;10.43;;
26953;SDS011;14508;50.924;11.600;2022-12-18T05:27:55;18.65;;;8.80;;
26953;SDS011;14508;50.924;11.600;2022-12-18T05:30:23;19.70;;;8.27;;
26953;SDS011;14508;50.924;11.600;2022-12-18T05:32:51;19.40;;;9.27;;
26953;SDS011;14508;50.924;11.600;2022-12-18T05:35:21;14.95;;;7.15;;
26953;SDS011;14508;50.924;11.600;2022-12-18T05:37:49;23.05;;;9.55;;
26953;SDS011;14508;50.924;11.600;2022-12-18T05:40:17;28.65;;;9.05;;
26953;SDS011;14508;50.924;11.600;2022-12-18T05:42:45;18.20;;;8.23;;
26953;SDS011;14508;50.924;11.600;2022-12-18T05:45:13;23.48;;;9.10;;
26953;SDS011;14508;50.924;11.600;2022-12-18T05:47:41;15.75;;;7.97;;
26953;SDS011;14508;50.924;11.600;2022-12-18T05:50:09;27.30;;;9.82;;
26953;SDS011;14508;50.924;11.600;2022-12-18T05:52:39;24.00;;;9.23;;
26953;SDS011;14508;50.924;11.600;2022-12-18T05:55:07;19.67;;;9.18;;
26953;SDS011;14508;50.924;11.600;2022-12-18T05:57:35;28.58;;;11.55;;
26953;SDS011;14508;50.924;11.600;2022-12-18T06:00:03;27.25;;;9.13;;
26953;SDS011;14508;50.924;11.600;2022-12-18T06:02:37;28.15;;;11.48;;
26953;SDS011;14508;50.924;11.600;2022-12-18T06:05:05;22.08;;;8.35;;
26953;SDS011;14508;50.924;11.600;2022-12-18T06:07:34;19.45;;;9.32;;
26953;SDS011;14508;50.924;11.600;2022-12-18T06:10:03;25.25;;;9.85;;
26953;SDS011;14508;50.924;11.600;2022-12-18T06:12:32;20.52;;;8.55;;
26953;SDS011;14508;50.924;11.600;2022-12-18T06:15:00;22.48;;;8.27;;
26953;SDS011;14508;50.924;11.600;2022-12-18T06:17:29;24.88;;;9.82;;
26953;SDS011;14508;50.924;11.600;2022-12-18T06:19:57;20.52;;;9.43;;
26953;SDS011;14508;50.924;11.600;2022-12-18T06:22:25;22.85;;;8.18;;
26953;SDS011;14508;50.924;11.600;2022-12-18T06:24:54;22.70;;;9.50;;
26953;SDS011;14508;50.924;11.600;2022-12-18T06:27:23;19.92;;;7.82;;
26953;SDS011;14508;50.924;11.600;2022-12-18T06:29:51;37.10;;;9.23;;
26953;SDS011;14508;50.924;11.600;2022-12-18T06:32:19;18.85;;;8.07;;
26953;SDS011;14508;50.924;11.600;2022-12-18T06:34:47;18.15;;;9.18;;
26953;SDS011;14508;50.924;11.600;2022-12-18T06:37:15;17.35;;;8.23;;
26953;SDS011;14508;50.924;11.600;2022-12-18T06:39:43;22.15;;;8.70;;
26953;SDS011;14508;50.924;11.600;2022-12-18T06:42:11;18.33;;;8.50;;
26953;SDS011;14508;50.924;11.600;2022-12-18T06:44:41;17.58;;;9.00;;
26953;SDS011;14508;50.924;11.600;2022-12-18T06:47:08;25.83;;;10.13;;
26953;SDS011;14508;50.924;11.600;2022-12-18T06:49:36;17.63;;;8.50;;
26953;SDS011;14508;50.924;11.600;2022-12-18T06:52:04;17.42;;;7.93;;
26953;SDS011;14508;50.924;11.600;2022-12-18T06:54:32;17.58;;;7.88;;
26953;SDS011;14508;50.924;11.600;2022-12-18T06:57:03;18.98;;;9.07;;
26953;SDS011;14508;50.924;11.600;2022-12-18T06:59:31;25.85;;;8.65;;
26953;SDS011;14508;50.924;11.600;2022-12-18T07:02:01;29.27;;;8.35;;
26953;SDS011;14508;50.924;11.600;2022-12-18T07:04:29;18.40;;;9.00;;
26953;SDS011;14508;50.924;11.600;2022-12-18T07:06:57;41.50;;;12.77;;
26953;SDS011;14508;50.924;11.600;2022-12-18T07:09:25;30.73;;;9.90;;
26953;SDS011;14508;50.924;11.600;2022-12-18T07:11:56;24.77;;;8.93;;
26953;SDS011;14508;50.924;11.600;2022-12-18T07:14:24;31.30;;;9.63;;
26953;SDS011;14508;50.924;11.600;2022-12-18T07:16:53;22.30;;;7.85;;
26953;SDS011;14508;50.924;11.600;2022-12-18T07:19:22;19.05;;;8.25;;
26953;SDS011;14508;50.924;11.600;2022-12-18T07:21:50;20.83;;;8.23;;
26953;SDS011;14508;50.924;11.600;2022-12-18T07:24:19;26.38;;;8.80;;
26953;SDS011;14508;50.924;11.600;2022-12-18T07:26:47;21.95;;;9.10;;
26953;SDS011;14508;50.924;11.600;2022-12-18T07:29:14;34.47;;;11.43;;
26953;SDS011;14508;50.924;11.600;2022-12-18T07:31:43;37.97;;;14.38;;
26953;SDS011;14508;50.924;11.600;2022-12-18T07:34:11;25.42;;;10.35;;
26953;SDS011;14508;50.924;11.600;2022-12-18T07:36:42;31.77;;;10.85;;
26953;SDS011;14508;50.924;11.600;2022-12-18T07:39:10;33.70;;;14.93;;
26953;SDS011;14508;50.924;11.600;2022-12-18T07:41:38;29.70;;;11.07;;
26953;SDS011;14508;50.924;11.600;2022-12-18T07:44:14;26.27;;;11.65;;
26953;SDS011;14508;50.924;11.600;2022-12-18T07:46:42;24.40;;;8.55;;
26953;SDS011;14508;50.924;11.600;2022-12-18T07:49:10;25.15;;;9.80;;
26953;SDS011;14508;50.924;11.600;2022-12-18T07:51:38;22.60;;;10.40;;
26953;SDS011;14508;50.924;11.600;2022-12-18T07:54:07;21.70;;;10.50;;
26953;SDS011;14508;50.924;11.600;2022-12-18T07:56:35;20.20;;;8.85;;
26953;SDS011;14508;50.924;11.600;2022-12-18T07:59:03;18.65;;;8.40;;
26953;SDS011;14508;50.924;11.600;2022-12-18T08:01:31;19.05;;;9.10;;
26953;SDS011;14508;50.924;11.600;2022-12-18T08:04:00;21.67;;;9.93;;
26953;SDS011;14508;50.924;11.600;2022-12-18T08:06:28;18.05;;;9.30;;
26953;SDS011;14508;50.924;11.600;2022-12-18T08:08:57;17.83;;;8.30;;
26953;SDS011;14508;50.924;11.600;2022-12-18T08:11:26;25.85;;;9.32;;
26953;SDS011;14508;50.924;11.600;2022-12-18T08:13:55;18.02;;;8.23;;
26953;SDS011;14508;50.924;11.600;2022-12-18T08:16:23;24.55;;;9.50;;
26953;SDS011;14508;50.924;11.600;2022-12-18T08:18:52;32.08;;;9.93;;
26953;SDS011;14508;50.924;11.600;2022-12-18T08:21:22;25.23;;;10.27;;
26953;SDS011;14508;50.924;11.600;2022-12-18T08:23:53;24.27;;;9.02;;
26953;SDS011;14508;50.924;11.600;2022-12-18T08:26:22;19.45;;;7.97;;
26953;SDS011;14508;50.924;11.600;2022-12-18T08:28:52;21.48;;;9.13;;
26953;SDS011;14508;50.924;11.600;2022-12-18T08:31:21;20.15;;;8.18;;
26953;SDS011;14508;50.924;11.600;2022-12-18T08:33:50;18.30;;;8.52;;
26953;SDS011;14508;50.924;11.600;2022-12-18T08:36:20;20.10;;;8.48;;
26953;SDS011;14508;50.924;11.600;2022-12-18T08:38:50;20.92;;;8.93;;
26953;SDS011;14508;50.924;11.600;2022-12-18T08:41:18;20.60;;;7.70;;
26953;SDS011;14508;50.924;11.600;2022-12-18T08:43:47;23.20;;;8.95;;
26953;SDS011;14508;50.924;11.600;2022-12-18T08:46:34;22.48;;;9.35;;
26953;SDS011;14508;50.924;11.600;2022-12-18T08:49:04;27.23;;;9.88;;
26953;SDS011;14508;50.924;11.600;2022-12-18T08:51:32;26.13;;;10.32;;
26953;SDS011;14508;50.924;11.600;2022-12-18T08:54:01;29.83;;;11.27;;
26953;SDS011;14508;50.924;11.600;2022-12-18T08:56:31;27.65;;;10.43;;
26953;SDS011;14508;50.924;11.600;2022-12-18T08:59:00;24.75;;;10.80;;
26953;SDS011;14508;50.924;11.600;2022-12-18T09:01:28;32.78;;;12.80;;
26953;SDS011;14508;50.924;11.600;2022-12-18T09:03:58;17.42;;;8.25;;
26953;SDS011;14508;50.924;11.600;2022-12-18T09:06:26;26.88;;;12.95;;
26953;SDS011;14508;50.924;11.600;2022-12-18T09:08:54;32.78;;;12.90;;
26953;SDS011;14508;50.924;11.600;2022-12-18T09:11:23;26.90;;;11.45;;
26953;SDS011;14508;50.924;11.600;2022-12-18T09:13:53;26.75;;;10.25;;
26953;SDS011;14508;50.924;11.600;2022-12-18T09:16:22;31.88;;;11.77;;
26953;SDS011;14508;50.924;11.600;2022-12-18T09:18:58;30.45;;;11.95;;
26953;SDS011;14508;50.924;11.600;2022-12-18T09:21:28;26.08;;;11.55;;
26953;SDS011;14508;50.924;11.600;2022-12-18T09:24:01;24.63;;;10.73;;
26953;SDS011;14508;50.924;11.600;2022-12-18T09:26:30;25.65;;;10.38;;
26953;SDS011;14508;50.924;11.600;2022-12-18T09:28:58;40.42;;;12.10;;
26953;SDS011;14508;50.924;11.600;2022-12-18T09:31:26;30.58;;;10.13;;
26953;SDS011;14508;50.924;11.600;2022-12-18T09:33:54;37.17;;;11.27;;
26953;SDS011;14508;50.924;11.600;2022-12-18T09:36:25;29.63;;;11.77;;
26953;SDS011;14508;50.924;11.600;2022-12-18T09:38:53;33.08;;;13.13;;
26953;SDS011;14508;50.924;11.600;2022-12-18T09:44:19;36.08;;;12.68;;
26953;SDS011;14508;50.924;11.600;2022-12-18T09:46:53;29.08;;;10.95;;
26953;SDS011;14508;50.924;11.600;2022-12-18T09:49:30;30.10;;;11.73;;
26953;SDS011;14508;50.924;11.600;2022-12-18T09:52:07;33.95;;;13.32;;
26953;SDS011;14508;50.924;11.600;2022-12-18T09:54:39;21.42;;;11.15;;
26953;SDS011;14508;50.924;11.600;2022-12-18T09:57:14;26.88;;;11.70;;
26953;SDS011;14508;50.924;11.600;2022-12-18T09:59:46;35.97;;;15.02;;
26953;SDS011;14508;50.924;11.600;2022-12-18T10:02:19;29.13;;;10.75;;
26953;SDS011;14508;50.924;11.600;2022-12-18T10:04:53;33.22;;;14.32;;
26953;SDS011;14508;50.924;11.600;2022-12-18T10:07:33;38.80;;;14.07;;
26953;SDS011;14508;50.924;11.600;2022-12-18T10:10:12;33.90;;;14.05;;
26953;SDS011;14508;50.924;11.600;2022-12-18T10:12:45;39.92;;;16.67;;
26953;SDS011;14508;50.924;11.600;2022-12-18T10:15:30;169.65;;;46.80;;
26953;SDS011;14508;50.924;11.600;2022-12-18T10:18:12;58.95;;;20.15;;
26953;SDS011;14508;50.924;11.600;2022-12-18T10:20:49;32.25;;;13.10;;
26953;SDS011;14508;50.924;11.600;2022-12-18T10:23:22;32.63;;;11.68;;
26953;SDS011;14508;50.924;11.600;2022-12-18T10:25:59;31.58;;;11.57;;
26953;SDS011;14508;50.924;11.600;2022-12-18T10:28:30;25.95;;;10.68;;
26953;SDS011;14508;50.924;11.600;2022-12-18T10:30:59;35.63;;;11.13;;
26953;SDS011;14508;50.924;11.600;2022-12-18T10:33:28;25.17;;;10.73;;
26953;SDS011;14508;50.924;11.600;2022-12-18T10:35:58;22.35;;;10.00;;
26953;SDS011;14508;50.924;11.600;2022-12-18T10:38:29;29.42;;;10.32;;
26953;SDS011;14508;50.924;11.600;2022-12-18T10:40:58;23.02;;;9.52;;
26953;SDS011;14508;50.924;11.600;2022-12-18T10:43:29;20.83;;;10.30;;
26953;SDS011;14508;50.924;11.600;2022-12-18T10:45:59;31.55;;;11.75;;
26953;SDS011;14508;50.924;11.600;2022-12-18T10:48:50;20.70;;;10.25;;
26953;SDS011;14508;50.924;11.600;2022-12-18T10:51:21;27.88;;;9.85;;
26953;SDS011;14508;50.924;11.600;2022-12-18T10:56:29;20.52;;;8.98;;
26953;SDS011;14508;50.924;11.600;2022-12-18T10:58:59;34.65;;;10.88;;
26953;SDS011;14508;50.924;11.600;2022-12-18T11:01:34;23.60;;;11.90;;
26953;SDS011;14508;50.924;11.600;2022-12-18T11:04:16;24.20;;;9.63;;
26953;SDS011;14508;50.924;11.600;2022-12-18T11:06:57;26.45;;;9.82;;
26953;SDS011;14508;50.924;11.600;2022-12-18T11:09:28;30.08;;;10.80;;
26953;SDS011;14508;50.924;11.600;2022-12-18T11:11:58;26.05;;;10.30;;
26953;SDS011;14508;50.924;11.600;2022-12-18T11:14:28;32.17;;;11.32;;
26953;SDS011;14508;50.924;11.600;2022-12-18T11:16:58;17.95;;;9.48;;
26953;SDS011;14508;50.924;11.600;2022-12-18T11:19:51;30.13;;;10.30;;
26953;SDS011;14508;50.924;11.600;2022-12-18T11:22:23;28.25;;;11.65;;
26953;SDS011;14508;50.924;11.600;2022-12-18T11:24:56;28.90;;;13.10;;
26953;SDS011;14508;50.924;11.600;2022-12-18T11:27:49;29.42;;;10.65;;
26953;SDS011;14508;50.924;11.600;2022-12-18T11:30:24;29.77;;;11.27;;
26953;SDS011;14508;50.924;11.600;2022-12-18T11:35:30;27.38;;;12.10;;
26953;SDS011;14508;50.924;11.600;2022-12-18T11:38:09;29.77;;;12.43;;
26953;SDS011;14508;50.924;11.600;2022-12-18T11:40:47;31.13;;;10.98;;
26953;SDS011;14508;50.924;11.600;2022-12-18T11:43:25;31.67;;;12.02;;
26953;SDS011;14508;50.924;11.600;2022-12-18T11:45:56;30.88;;;12.15;;
26953;SDS011;14508;50.924;11.600;2022-12-18T11:48:30;35.55;;;13.02;;
26953;SDS011;14508;50.924;11.600;2022-12-18T11:51:02;33.63;;;13.32;;
26953;SDS011;14508;50.924;11.600;2022-12-18T11:53:32;35.67;;;13.25;;
26953;SDS011;14508;50.924;11.600;2022-12-18T11:56:11;32.92;;;12.43;;
26953;SDS011;14508;50.924;11.600;2022-12-18T11:58:55;36.10;;;13.70;;
26953;SDS011;14508;50.924;11.600;2022-12-18T12:01:35;31.23;;;14.07;;
26953;SDS011;14508;50.924;11.600;2022-12-18T12:04:19;32.22;;;13.32;;
26953;SDS011;14508;50.924;11.600;2022-12-18T12:07:09;38.08;;;15.30;;
26953;SDS011;14508;50.924;11.600;2022-12-18T12:09:46;36.17;;;14.00;;
26953;SDS011;14508;50.924;11.600;2022-12-18T12:12:30;37.17;;;15.27;;
26953;SDS011;14508;50.924;11.600;2022-12-18T12:15:17;33.33;;;14.60;;
26953;SDS011;14508;50.924;11.600;2022-12-18T12:17:55;36.65;;;14.40;;
26953;SDS011;14508;50.924;11.600;2022-12-18T12:20:39;32.97;;;15.07;;
26953;SDS011;14508;50.924;11.600;2022-12-18T12:23:15;38.88;;;13.98;;
26953;SDS011;14508;50.924;11.600;2022-12-18T12:25:55;34.08;;;13.68;;
26953;SDS011;14508;50.924;11.600;2022-12-18T12:28:31;34.33;;;13.82;;
26953;SDS011;14508;50.924;11.600;2022-12-18T12:31:12;27.25;;;12.75;;
26953;SDS011;14508;50.924;11.600;2022-12-18T12:33:47;37.15;;;13.45;;
26953;SDS011;14508;50.924;11.600;2022-12-18T12:36:20;31.52;;;13.07;;
26953;SDS011;14508;50.924;11.600;2022-12-18T12:38:54;31.80;;;13.43;;
26953;SDS011;14508;50.924;11.600;2022-12-18T12:41:25;28.67;;;12.63;;
26953;SDS011;14508;50.924;11.600;2022-12-18T12:44:18;41.80;;;14.30;;
26953;SDS011;14508;50.924;11.600;2022-12-18T12:46:51;40.47;;;14.27;;
26953;SDS011;14508;50.924;11.600;2022-12-18T12:49:22;29.92;;;12.93;;
26953;SDS011;14508;50.924;11.600;2022-12-18T12:51:56;24.98;;;11.93;;
26953;SDS011;14508;50.924;11.600;2022-12-18T12:54:28;36.10;;;11.93;;
26953;SDS011;14508;50.924;11.600;2022-12-18T12:56:59;24.70;;;12.05;;
26953;SDS011;14508;50.924;11.600;2022-12-18T12:59:39;30.23;;;13.63;;
26953;SDS011;14508;50.924;11.600;2022-12-18T13:02:17;30.42;;;12.82;;
26953;SDS011;14508;50.924;11.600;2022-12-18T13:04:52;32.80;;;13.65;;
26953;SDS011;14508;50.924;11.600;2022-12-18T13:07:26;38.15;;;14.57;;
26953;SDS011;14508;50.924;11.600;2022-12-18T13:13:00;34.70;;;14.15;;
26953;SDS011;14508;50.924;11.600;2022-12-18T13:15:40;37.83;;;15.02;;
26953;SDS011;14508;50.924;11.600;2022-12-18T13:18:30;32.95;;;15.13;;
26953;SDS011;14508;50.924;11.600;2022-12-18T13:21:02;40.47;;;14.88;;
26953;SDS011;14508;50.924;11.600;2022-12-18T13:23:37;35.95;;;14.38;;
26953;SDS011;14508;50.924;11.600;2022-12-18T13:29:00;32.95;;;13.63;;
26953;SDS011;14508;50.924;11.600;2022-12-18T13:34:47;32.17;;;11.45;;
26953;SDS011;14508;50.924;11.600;2022-12-18T13:43:32;20.20;;;8.20;;
26953;SDS011;14508;50.924;11.600;2022-12-18T13:46:05;20.58;;;9.05;;
26953;SDS011;14508;50.924;11.600;2022-12-18T13:48:52;14.18;;;7.60;;
26953;SDS011;14508;50.924;11.600;2022-12-18T13:51:23;21.33;;;9.75;;
26953;SDS011;14508;50.924;11.600;2022-12-18T13:53:53;22.05;;;9.27;;
26953;SDS011;14508;50.924;11.600;2022-12-18T13:56:25;23.05;;;9.85;;
26953;SDS011;14508;50.924;11.600;2022-12-18T13:59:15;19.08;;;9.27;;
26953;SDS011;14508;50.924;11.600;2022-12-18T14:01:51;26.02;;;10.93;;
26953;SDS011;14508;50.924;11.600;2022-12-18T14:04:24;22.90;;;10.75;;
26953;SDS011;14508;50.924;11.600;2022-12-18T14:06:55;38.97;;;14.05;;
26953;SDS011;14508;50.924;11.600;2022-12-18T14:09:27;43.47;;;14.10;;
26953;SDS011;14508;50.924;11.600;2022-12-18T14:11:57;34.60;;;13.88;;
26953;SDS011;14508;50.924;11.600;2022-12-18T14:14:41;39.15;;;14.30;;
26953;SDS011;14508;50.924;11.600;2022-12-18T14:17:11;39.00;;;14.05;;
26953;SDS011;14508;50.924;11.600;2022-12-18T14:19:42;33.63;;;14.73;;
26953;SDS011;14508;50.924;11.600;2022-12-18T14:22:14;30.77;;;13.80;;
26953;SDS011;14508;50.924;11.600;2022-12-18T14:24:44;38.40;;;12.75;;
26953;SDS011;14508;50.924;11.600;2022-12-18T14:27:18;40.42;;;16.17;;
26953;SDS011;14508;50.924;11.600;2022-12-18T14:29:49;42.47;;;15.40;;
26953;SDS011;14508;50.924;11.600;2022-12-18T14:32:17;36.70;;;15.48;;
26953;SDS011;14508;50.924;11.600;2022-12-18T14:34:48;33.78;;;15.05;;
26953;SDS011;14508;50.924;11.600;2022-12-18T14:37:20;33.40;;;15.10;;
26953;SDS011;14508;50.924;11.600;2022-12-18T14:39:53;32.78;;;12.68;;
26953;SDS011;14508;50.924;11.600;2022-12-18T14:42:23;26.45;;;11.70;;
26953;SDS011;14508;50.924;11.600;2022-12-18T14:48:08;26.67;;;11.48;;
26953;SDS011;14508;50.924;11.600;2022-12-18T14:50:55;28.27;;;13.40;;
26953;SDS011;14508;50.924;11.600;2022-12-18T14:53:32;27.85;;;11.95;;
26953;SDS011;14508;50.924;11.600;2022-12-18T14:56:12;27.67;;;11.38;;
26953;SDS011;14508;50.924;11.600;2022-12-18T14:58:47;21.30;;;8.25;;
26953;SDS011;14508;50.924;11.600;2022-12-18T15:01:21;25.63;;;9.07;;
26953;SDS011;14508;50.924;11.600;2022-12-18T15:03:51;24.42;;;9.20;;
26953;SDS011;14508;50.924;11.600;2022-12-18T15:06:26;26.65;;;10.85;;
26953;SDS011;14508;50.924;11.600;2022-12-18T15:08:56;21.20;;;9.88;;
26953;SDS011;14508;50.924;11.600;2022-12-18T15:11:30;26.02;;;10.88;;
26953;SDS011;14508;50.924;11.600;2022-12-18T15:16:51;28.55;;;10.55;;
26953;SDS011;14508;50.924;11.600;2022-12-18T15:19:21;31.08;;;10.05;;